sensor_id;sensor_type;location;lat;lon;timestamp;pressure;altitude;pressure_sealevel;temperature;humidity
76732;BME280;65656;51.130;13.658;2023-02-20T00:01:04;100072.84;;;1.98;87.47
76732;BME280;65656;51.130;13.658;2023-02-20T00:05:07;100074.53;;;1.99;88.83
76732;BME280;65656;51.130;13.658;2023-02-20T00:09:09;100078.25;;;1.98;87.86
76732;BME280;65656;51.130;13.658;2023-02-20T00:13:10;100067.06;;;2.01;87.83
76732;BME280;65656;51.130;13.658;2023-02-20T00:17:12;100061.34;;;2.04;88.73
76732;BME280;65656;51.130;13.658;2023-02-20T00:21:14;100063.84;;;2.06;88.95
76732;BME280;65656;51.130;13.658;2023-02-20T00:25:17;100063.13;;;2.12;87.36
76732;BME280;65656;51.130;13.658;2023-02-20T00:29:21;100050.41;;;2.20;87.83
76732;BME280;65656;51.130;13.658;2023-02-20T00:33:23;100051.69;;;2.24;88.66
76732;BME280;65656;51.130;13.658;2023-02-20T00:37:26;100046.91;;;2.35;88.67
76732;BME280;65656;51.130;13.658;2023-02-20T00:41:28;100037.63;;;2.52;88.88
76732;BME280;65656;51.130;13.658;2023-02-20T00:45:29;100034.66;;;2.62;88.40
76732;BME280;65656;51.130;13.658;2023-02-20T00:49:30;100044.09;;;2.66;88.32
76732;BME280;65656;51.130;13.658;2023-02-20T00:53:33;100031.50;;;2.88;88.21
76732;BME280;65656;51.130;13.658;2023-02-20T00:57:35;100011.63;;;2.95;88.00
76732;BME280;65656;51.130;13.658;2023-02-20T01:01:36;100018.56;;;2.98;87.81
76732;BME280;65656;51.130;13.658;2023-02-20T01:05:38;100011.72;;;3.02;87.68
76732;BME280;65656;51.130;13.658;2023-02-20T01:09:41;100026.28;;;3.01;88.04
76732;BME280;65656;51.130;13.658;2023-02-20T01:13:43;100020.44;;;3.12;87.59
76732;BME280;65656;51.130;13.658;2023-02-20T01:17:45;100013.25;;;3.19;87.44
76732;BME280;65656;51.130;13.658;2023-02-20T01:21:46;100013.97;;;3.13;87.85
76732;BME280;65656;51.130;13.658;2023-02-20T01:25:49;99991.56;;;3.19;88.00
76732;BME280;65656;51.130;13.658;2023-02-20T01:29:51;100000.44;;;3.28;86.84
76732;BME280;65656;51.130;13.658;2023-02-20T01:33:52;99996.22;;;3.25;87.27
76732;BME280;65656;51.130;13.658;2023-02-20T01:37:54;99990.34;;;3.22;87.26
76732;BME280;65656;51.130;13.658;2023-02-20T01:41:59;99983.34;;;3.27;87.54
76732;BME280;65656;51.130;13.658;2023-02-20T01:50:41;99974.72;;;3.39;87.30
76732;BME280;65656;51.130;13.658;2023-02-20T01:54:47;99973.03;;;3.38;87.35
76732;BME280;65656;51.130;13.658;2023-02-20T01:58:50;99982.28;;;3.43;88.12
76732;BME280;65656;51.130;13.658;2023-02-20T02:02:55;99965.72;;;3.53;87.90
76732;BME280;65656;51.130;13.658;2023-02-20T02:06:59;99970.50;;;3.51;87.72
76732;BME280;65656;51.130;13.658;2023-02-20T02:11:03;99969.06;;;3.55;88.26
76732;BME280;65656;51.130;13.658;2023-02-20T02:15:13;99955.41;;;3.63;87.86
76732;BME280;65656;51.130;13.658;2023-02-20T02:19:28;99957.00;;;3.57;88.31
76732;BME280;65656;51.130;13.658;2023-02-20T02:24:16;99959.53;;;3.59;89.23
76732;BME280;65656;51.130;13.658;2023-02-20T02:28:51;99951.28;;;3.67;89.68
76732;BME280;65656;51.130;13.658;2023-02-20T02:33:27;99941.72;;;3.71;89.30
76732;BME280;65656;51.130;13.658;2023-02-20T02:37:40;99951.81;;;3.77;89.62
76732;BME280;65656;51.130;13.658;2023-02-20T02:41:51;99950.50;;;3.73;91.00
76732;BME280;65656;51.130;13.658;2023-02-20T02:45:57;99953.28;;;3.80;90.88
76732;BME280;65656;51.130;13.658;2023-02-20T02:50:04;99937.69;;;3.82;90.80
76732;BME280;65656;51.130;13.658;2023-02-20T02:54:10;99925.47;;;3.92;90.58
76732;BME280;65656;51.130;13.658;2023-02-20T02:58:14;99918.25;;;4.00;90.25
76732;BME280;65656;51.130;13.658;2023-02-20T03:02:18;99914.34;;;4.09;90.93
76732;BME280;65656;51.130;13.658;2023-02-20T03:06:23;99899.97;;;4.08;90.16
76732;BME280;65656;51.130;13.658;2023-02-20T03:10:27;99897.03;;;4.10;90.25
76732;BME280;65656;51.130;13.658;2023-02-20T03:14:34;99907.09;;;4.16;88.82
76732;BME280;65656;51.130;13.658;2023-02-20T03:18:39;99892.56;;;4.24;89.20
76732;BME280;65656;51.130;13.658;2023-02-20T03:22:43;99896.75;;;4.26;87.89
76732;BME280;65656;51.130;13.658;2023-02-20T03:26:51;99888.03;;;4.31;88.72
76732;BME280;65656;51.130;13.658;2023-02-20T03:30:55;99886.34;;;4.30;87.82
76732;BME280;65656;51.130;13.658;2023-02-20T03:34:59;99876.72;;;4.27;88.58
76732;BME280;65656;51.130;13.658;2023-02-20T03:39:04;99883.44;;;4.31;88.66
76732;BME280;65656;51.130;13.658;2023-02-20T03:43:11;99884.69;;;4.29;88.27
76732;BME280;65656;51.130;13.658;2023-02-20T03:47:16;99879.88;;;4.31;87.72
76732;BME280;65656;51.130;13.658;2023-02-20T03:51:19;99884.31;;;4.38;88.20
76732;BME280;65656;51.130;13.658;2023-02-20T03:55:21;99891.38;;;4.33;88.29
76732;BME280;65656;51.130;13.658;2023-02-20T03:59:27;99885.75;;;4.34;89.23
76732;BME280;65656;51.130;13.658;2023-02-20T04:03:35;99885.59;;;4.42;88.24
76732;BME280;65656;51.130;13.658;2023-02-20T04:07:41;99867.25;;;4.44;88.39
76732;BME280;65656;51.130;13.658;2023-02-20T04:11:48;99868.47;;;4.42;87.87
76732;BME280;65656;51.130;13.658;2023-02-20T04:15:52;99855.53;;;4.37;88.17
76732;BME280;65656;51.130;13.658;2023-02-20T04:19:54;99835.06;;;4.41;88.44
76732;BME280;65656;51.130;13.658;2023-02-20T04:24:01;99860.13;;;4.43;88.51
76732;BME280;65656;51.130;13.658;2023-02-20T04:28:04;99859.75;;;4.46;88.14
76732;BME280;65656;51.130;13.658;2023-02-20T04:32:07;99852.22;;;4.48;89.10
76732;BME280;65656;51.130;13.658;2023-02-20T04:36:09;99841.47;;;4.62;88.37
76732;BME280;65656;51.130;13.658;2023-02-20T04:40:12;99856.94;;;4.68;88.29
76732;BME280;65656;51.130;13.658;2023-02-20T04:44:14;99870.97;;;4.78;87.30
76732;BME280;65656;51.130;13.658;2023-02-20T04:48:17;99852.84;;;4.85;86.64
76732;BME280;65656;51.130;13.658;2023-02-20T04:52:19;99858.28;;;4.85;87.16
76732;BME280;65656;51.130;13.658;2023-02-20T04:56:20;99852.44;;;4.88;87.65
76732;BME280;65656;51.130;13.658;2023-02-20T05:00:22;99837.00;;;4.95;86.95
76732;BME280;65656;51.130;13.658;2023-02-20T05:04:25;99843.91;;;4.91;88.09
76732;BME280;65656;51.130;13.658;2023-02-20T05:08:29;99840.97;;;4.93;87.41
76732;BME280;65656;51.130;13.658;2023-02-20T05:12:31;99825.28;;;4.88;88.10
76732;BME280;65656;51.130;13.658;2023-02-20T05:16:32;99818.41;;;4.92;88.56
76732;BME280;65656;51.130;13.658;2023-02-20T05:20:35;99824.88;;;4.91;87.96
76732;BME280;65656;51.130;13.658;2023-02-20T05:24:37;99814.47;;;5.01;87.78
76732;BME280;65656;51.130;13.658;2023-02-20T05:28:38;99808.59;;;4.98;87.37
76732;BME280;65656;51.130;13.658;2023-02-20T05:32:40;99808.59;;;5.04;87.30
76732;BME280;65656;51.130;13.658;2023-02-20T05:36:43;99790.25;;;5.07;86.92
76732;BME280;65656;51.130;13.658;2023-02-20T05:40:44;99779.19;;;5.08;86.21
76732;BME280;65656;51.130;13.658;2023-02-20T05:44:46;99777.31;;;5.09;85.32
76732;BME280;65656;51.130;13.658;2023-02-20T05:48:48;99791.47;;;5.04;85.42
76732;BME280;65656;51.130;13.658;2023-02-20T05:52:51;99784.81;;;5.07;85.44
76732;BME280;65656;51.130;13.658;2023-02-20T05:56:53;99780.00;;;5.09;84.47
76732;BME280;65656;51.130;13.658;2023-02-20T06:00:54;99766.22;;;5.03;84.81
76732;BME280;65656;51.130;13.658;2023-02-20T06:04:55;99775.41;;;5.02;85.81
76732;BME280;65656;51.130;13.658;2023-02-20T06:08:58;99795.25;;;5.03;85.40
76732;BME280;65656;51.130;13.658;2023-02-20T06:13:00;99788.56;;;5.12;84.91
76732;BME280;65656;51.130;13.658;2023-02-20T06:17:02;99791.09;;;5.14;84.87
76732;BME280;65656;51.130;13.658;2023-02-20T06:21:06;99786.91;;;5.18;85.22
76732;BME280;65656;51.130;13.658;2023-02-20T06:25:09;99776.47;;;5.28;83.26
76732;BME280;65656;51.130;13.658;2023-02-20T06:29:11;99772.75;;;5.42;81.64
76732;BME280;65656;51.130;13.658;2023-02-20T06:33:13;99793.66;;;5.48;80.93
76732;BME280;65656;51.130;13.658;2023-02-20T06:37:14;99784.44;;;5.49;81.77
76732;BME280;65656;51.130;13.658;2023-02-20T06:41:17;99762.72;;;5.56;80.70
76732;BME280;65656;51.130;13.658;2023-02-20T06:45:19;99762.94;;;5.54;80.34
76732;BME280;65656;51.130;13.658;2023-02-20T06:49:20;99746.81;;;5.59;79.99
76732;BME280;65656;51.130;13.658;2023-02-20T06:53:21;99751.41;;;5.59;80.26
76732;BME280;65656;51.130;13.658;2023-02-20T06:57:24;99756.44;;;5.62;79.77
76732;BME280;65656;51.130;13.658;2023-02-20T07:01:28;99750.38;;;5.67;79.93
76732;BME280;65656;51.130;13.658;2023-02-20T07:05:29;99738.03;;;5.71;79.28
76732;BME280;65656;51.130;13.658;2023-02-20T07:09:31;99719.63;;;5.73;78.61
76732;BME280;65656;51.130;13.658;2023-02-20T07:13:34;99737.59;;;5.87;76.74
76732;BME280;65656;51.130;13.658;2023-02-20T07:17:35;99728.63;;;5.93;76.66
76732;BME280;65656;51.130;13.658;2023-02-20T07:21:37;99732.19;;;5.94;75.30
76732;BME280;65656;51.130;13.658;2023-02-20T07:25:39;99726.69;;;6.07;73.74
76732;BME280;65656;51.130;13.658;2023-02-20T07:29:43;99730.06;;;6.09;73.30
76732;BME280;65656;51.130;13.658;2023-02-20T07:33:45;99714.94;;;6.13;71.88
76732;BME280;65656;51.130;13.658;2023-02-20T07:37:46;99721.22;;;6.13;72.42
76732;BME280;65656;51.130;13.658;2023-02-20T07:41:49;99726.25;;;6.23;70.95
76732;BME280;65656;51.130;13.658;2023-02-20T07:45:52;99726.84;;;6.25;71.27
76732;BME280;65656;51.130;13.658;2023-02-20T07:49:53;99700.03;;;6.29;70.68
76732;BME280;65656;51.130;13.658;2023-02-20T07:53:55;99710.69;;;6.37;69.59
76732;BME280;65656;51.130;13.658;2023-02-20T07:57:56;99703.56;;;6.36;69.94
76732;BME280;65656;51.130;13.658;2023-02-20T08:01:59;99726.59;;;6.40;69.33
76732;BME280;65656;51.130;13.658;2023-02-20T08:06:00;99724.50;;;6.42;68.89
76732;BME280;65656;51.130;13.658;2023-02-20T08:10:03;99681.13;;;6.47;67.48
76732;BME280;65656;51.130;13.658;2023-02-20T08:14:05;99664.53;;;6.55;67.39
76732;BME280;65656;51.130;13.658;2023-02-20T08:18:08;99653.44;;;6.57;67.86
76732;BME280;65656;51.130;13.658;2023-02-20T08:22:23;99669.47;;;6.72;67.30
76732;BME280;65656;51.130;13.658;2023-02-20T08:26:42;99666.91;;;6.77;67.18
76732;BME280;65656;51.130;13.658;2023-02-20T08:30:43;99680.91;;;6.87;67.25
76732;BME280;65656;51.130;13.658;2023-02-20T08:34:46;99690.91;;;7.24;66.68
76732;BME280;65656;51.130;13.658;2023-02-20T08:38:48;99661.47;;;7.33;65.69
76732;BME280;65656;51.130;13.658;2023-02-20T08:42:49;99641.13;;;7.54;66.32
76732;BME280;65656;51.130;13.658;2023-02-20T08:46:51;99642.03;;;7.48;66.20
76732;BME280;65656;51.130;13.658;2023-02-20T08:50:54;99656.09;;;7.45;66.33
76732;BME280;65656;51.130;13.658;2023-02-20T08:54:55;99638.69;;;7.46;66.10
76732;BME280;65656;51.130;13.658;2023-02-20T08:58:56;99632.22;;;7.65;66.59
76732;BME280;65656;51.130;13.658;2023-02-20T09:02:58;99637.53;;;7.78;64.94
76732;BME280;65656;51.130;13.658;2023-02-20T09:07:01;99618.78;;;8.00;64.97
76732;BME280;65656;51.130;13.658;2023-02-20T09:11:03;99615.22;;;8.18;64.07
76732;BME280;65656;51.130;13.658;2023-02-20T09:15:05;99607.16;;;8.23;63.95
76732;BME280;65656;51.130;13.658;2023-02-20T09:19:06;99605.22;;;8.12;63.36
76732;BME280;65656;51.130;13.658;2023-02-20T09:23:09;99607.78;;;8.25;63.72
76732;BME280;65656;51.130;13.658;2023-02-20T09:27:11;99588.97;;;8.35;63.30
76732;BME280;65656;51.130;13.658;2023-02-20T09:31:13;99577.34;;;8.40;63.76
76732;BME280;65656;51.130;13.658;2023-02-20T09:35:16;99593.06;;;8.45;62.54
76732;BME280;65656;51.130;13.658;2023-02-20T09:39:19;99582.38;;;8.55;63.52
76732;BME280;65656;51.130;13.658;2023-02-20T09:43:29;99553.22;;;8.67;61.85
76732;BME280;65656;51.130;13.658;2023-02-20T09:47:49;99556.53;;;8.69;61.56
76732;BME280;65656;51.130;13.658;2023-02-20T09:51:55;99547.06;;;8.83;60.20
76732;BME280;65656;51.130;13.658;2023-02-20T09:56:00;99552.78;;;8.93;60.50
76732;BME280;65656;51.130;13.658;2023-02-20T10:00:05;99556.47;;;8.99;59.35
76732;BME280;65656;51.130;13.658;2023-02-20T10:04:12;99524.06;;;9.03;59.80
76732;BME280;65656;51.130;13.658;2023-02-20T10:08:18;99515.50;;;9.11;60.33
76732;BME280;65656;51.130;13.658;2023-02-20T10:12:27;99525.09;;;9.13;59.83
76732;BME280;65656;51.130;13.658;2023-02-20T10:16:34;99521.19;;;9.21;60.57
76732;BME280;65656;51.130;13.658;2023-02-20T10:20:45;99523.19;;;9.14;60.30
76732;BME280;65656;51.130;13.658;2023-02-20T10:25:02;99510.13;;;9.28;60.82
76732;BME280;65656;51.130;13.658;2023-02-20T10:29:17;99516.41;;;9.28;61.04
76732;BME280;65656;51.130;13.658;2023-02-20T10:33:25;99494.19;;;9.36;60.14
76732;BME280;65656;51.130;13.658;2023-02-20T10:37:35;99514.50;;;9.40;60.27
76732;BME280;65656;51.130;13.658;2023-02-20T10:41:50;99507.94;;;9.41;58.82
76732;BME280;65656;51.130;13.658;2023-02-20T10:45:57;99508.06;;;9.46;59.12
76732;BME280;65656;51.130;13.658;2023-02-20T10:50:07;99495.19;;;9.59;59.72
76732;BME280;65656;51.130;13.658;2023-02-20T10:54:11;99493.53;;;9.58;59.28
76732;BME280;65656;51.130;13.658;2023-02-20T10:58:19;99472.94;;;9.67;59.10
76732;BME280;65656;51.130;13.658;2023-02-20T11:02:26;99457.78;;;9.76;58.38
76732;BME280;65656;51.130;13.658;2023-02-20T11:06:33;99458.94;;;9.80;58.08
76732;BME280;65656;51.130;13.658;2023-02-20T11:10:36;99438.88;;;9.74;57.77
76732;BME280;65656;51.130;13.658;2023-02-20T11:14:42;99453.34;;;9.87;57.46
76732;BME280;65656;51.130;13.658;2023-02-20T11:18:46;99438.81;;;9.86;56.79
76732;BME280;65656;51.130;13.658;2023-02-20T11:22:49;99422.69;;;10.01;56.84
76732;BME280;65656;51.130;13.658;2023-02-20T11:26:55;99397.47;;;9.99;56.63
76732;BME280;65656;51.130;13.658;2023-02-20T11:31:02;99390.53;;;10.25;56.30
76732;BME280;65656;51.130;13.658;2023-02-20T11:35:24;99400.56;;;10.20;55.49
76732;BME280;65656;51.130;13.658;2023-02-20T11:39:28;99384.72;;;10.22;55.32
76732;BME280;65656;51.130;13.658;2023-02-20T11:43:32;99374.63;;;10.39;55.40
76732;BME280;65656;51.130;13.658;2023-02-20T11:47:34;99372.84;;;10.50;54.67
76732;BME280;65656;51.130;13.658;2023-02-20T11:51:39;99382.56;;;10.57;54.51
76732;BME280;65656;51.130;13.658;2023-02-20T11:55:40;99364.41;;;10.51;54.68
76732;BME280;65656;51.130;13.658;2023-02-20T11:59:47;99353.84;;;10.60;54.67
76732;BME280;65656;51.130;13.658;2023-02-20T12:03:53;99350.28;;;10.59;55.12
76732;BME280;65656;51.130;13.658;2023-02-20T12:07:58;99325.44;;;10.66;54.81
76732;BME280;65656;51.130;13.658;2023-02-20T12:12:00;99320.84;;;10.72;54.51
76732;BME280;65656;51.130;13.658;2023-02-20T12:16:12;99311.28;;;10.96;53.73
76732;BME280;65656;51.130;13.658;2023-02-20T12:20:22;99312.63;;;11.15;53.55
76732;BME280;65656;51.130;13.658;2023-02-20T12:24:48;99301.66;;;11.42;52.81
76732;BME280;65656;51.130;13.658;2023-02-20T12:29:02;99292.06;;;11.40;52.38
76732;BME280;65656;51.130;13.658;2023-02-20T12:33:22;99310.44;;;11.39;52.86
76732;BME280;65656;51.130;13.658;2023-02-20T12:37:36;99291.50;;;11.38;53.04
76732;BME280;65656;51.130;13.658;2023-02-20T12:41:59;99302.31;;;11.28;53.25
76732;BME280;65656;51.130;13.658;2023-02-20T12:46:05;99292.97;;;11.24;54.24
76732;BME280;65656;51.130;13.658;2023-02-20T12:54:31;99302.75;;;11.14;54.71
76732;BME280;65656;51.130;13.658;2023-02-20T12:58:47;99289.06;;;11.20;54.32
76732;BME280;65656;51.130;13.658;2023-02-20T13:02:49;99278.19;;;11.25;54.04
76732;BME280;65656;51.130;13.658;2023-02-20T13:06:57;99280.66;;;11.26;54.08
76732;BME280;65656;51.130;13.658;2023-02-20T13:11:04;99288.03;;;11.21;54.82
76732;BME280;65656;51.130;13.658;2023-02-20T13:15:20;99267.50;;;11.28;54.50
76732;BME280;65656;51.130;13.658;2023-02-20T13:19:29;99271.56;;;11.21;54.83
76732;BME280;65656;51.130;13.658;2023-02-20T13:23:36;99273.00;;;11.55;54.29
76732;BME280;65656;51.130;13.658;2023-02-20T13:27:38;99256.56;;;12.24;53.11
76732;BME280;65656;51.130;13.658;2023-02-20T13:31:46;99268.56;;;12.13;53.85
76732;BME280;65656;51.130;13.658;2023-02-20T13:35:51;99275.56;;;11.94;53.91
76732;BME280;65656;51.130;13.658;2023-02-20T13:39:53;99263.25;;;11.69;55.02
76732;BME280;65656;51.130;13.658;2023-02-20T13:48:41;99242.25;;;11.53;55.83
76732;BME280;65656;51.130;13.658;2023-02-20T13:52:43;99232.88;;;11.49;56.25
76732;BME280;65656;51.130;13.658;2023-02-20T13:56:48;99234.22;;;11.47;56.45
76732;BME280;65656;51.130;13.658;2023-02-20T14:00:52;99230.56;;;11.36;56.24
76732;BME280;65656;51.130;13.658;2023-02-20T14:04:58;99202.53;;;11.29;55.88
76732;BME280;65656;51.130;13.658;2023-02-20T14:09:09;99228.28;;;11.28;56.62
76732;BME280;65656;51.130;13.658;2023-02-20T14:13:13;99213.25;;;11.30;56.10
76732;BME280;65656;51.130;13.658;2023-02-20T14:17:19;99208.03;;;11.29;57.33
76732;BME280;65656;51.130;13.658;2023-02-20T14:21:23;99226.00;;;11.20;56.53
76732;BME280;65656;51.130;13.658;2023-02-20T14:25:25;99210.66;;;11.19;57.11
76732;BME280;65656;51.130;13.658;2023-02-20T14:29:29;99203.56;;;11.23;56.78
76732;BME280;65656;51.130;13.658;2023-02-20T14:33:32;99214.53;;;11.23;57.33
76732;BME280;65656;51.130;13.658;2023-02-20T14:37:41;99205.22;;;11.24;56.68
76732;BME280;65656;51.130;13.658;2023-02-20T14:41:51;99205.16;;;11.19;57.60
76732;BME280;65656;51.130;13.658;2023-02-20T14:45:59;99217.75;;;11.14;58.45
76732;BME280;65656;51.130;13.658;2023-02-20T14:50:14;99204.66;;;11.22;58.13
76732;BME280;65656;51.130;13.658;2023-02-20T14:54:20;99204.69;;;11.27;58.49
76732;BME280;65656;51.130;13.658;2023-02-20T14:58:22;99215.03;;;11.20;58.42
76732;BME280;65656;51.130;13.658;2023-02-20T15:02:27;99212.25;;;11.14;58.65
76732;BME280;65656;51.130;13.658;2023-02-20T15:06:36;99218.25;;;11.11;59.26
76732;BME280;65656;51.130;13.658;2023-02-20T15:10:42;99227.47;;;11.00;59.35
76732;BME280;65656;51.130;13.658;2023-02-20T15:14:44;99231.59;;;11.03;59.42
76732;BME280;65656;51.130;13.658;2023-02-20T15:18:46;99231.28;;;10.99;60.08
76732;BME280;65656;51.130;13.658;2023-02-20T15:23:06;99247.41;;;10.96;60.83
76732;BME280;65656;51.130;13.658;2023-02-20T15:27:18;99250.97;;;10.96;60.21
76732;BME280;65656;51.130;13.658;2023-02-20T15:31:21;99242.13;;;10.89;61.13
76732;BME280;65656;51.130;13.658;2023-02-20T15:35:25;99242.66;;;10.86;60.94
76732;BME280;65656;51.130;13.658;2023-02-20T15:39:27;99232.22;;;10.83;61.59
76732;BME280;65656;51.130;13.658;2023-02-20T15:43:30;99226.72;;;10.83;61.20
76732;BME280;65656;51.130;13.658;2023-02-20T15:47:51;99234.88;;;10.78;61.63
76732;BME280;65656;51.130;13.658;2023-02-20T15:51:53;99226.09;;;10.76;62.43
76732;BME280;65656;51.130;13.658;2023-02-20T15:56:05;99233.22;;;10.77;62.32
76732;BME280;65656;51.130;13.658;2023-02-20T16:00:10;99237.06;;;10.76;62.59
76732;BME280;65656;51.130;13.658;2023-02-20T16:04:18;99242.53;;;10.76;62.99
76732;BME280;65656;51.130;13.658;2023-02-20T16:08:21;99229.59;;;10.71;63.52
76732;BME280;65656;51.130;13.658;2023-02-20T16:12:25;99239.97;;;10.69;63.92
76732;BME280;65656;51.130;13.658;2023-02-20T16:16:31;99250.03;;;10.64;63.58
76732;BME280;65656;51.130;13.658;2023-02-20T16:20:33;99247.00;;;10.60;64.66
76732;BME280;65656;51.130;13.658;2023-02-20T16:24:35;99245.09;;;10.60;64.28
76732;BME280;65656;51.130;13.658;2023-02-20T16:28:36;99250.03;;;10.64;65.30
76732;BME280;65656;51.130;13.658;2023-02-20T16:32:39;99260.94;;;10.80;64.07
76732;BME280;65656;51.130;13.658;2023-02-20T16:36:41;99259.78;;;10.98;63.83
76732;BME280;65656;51.130;13.658;2023-02-20T16:40:42;99239.56;;;11.04;63.57
76732;BME280;65656;51.130;13.658;2023-02-20T16:44:45;99251.16;;;11.11;63.39
76732;BME280;65656;51.130;13.658;2023-02-20T16:48:48;99236.34;;;11.12;62.78
76732;BME280;65656;51.130;13.658;2023-02-20T16:52:51;99245.09;;;11.09;62.88
76732;BME280;65656;51.130;13.658;2023-02-20T16:56:53;99280.75;;;11.09;62.93
76732;BME280;65656;51.130;13.658;2023-02-20T17:00:55;99274.63;;;11.02;63.75
76732;BME280;65656;51.130;13.658;2023-02-20T17:05:00;99270.81;;;11.03;64.01
76732;BME280;65656;51.130;13.658;2023-02-20T17:09:01;99287.88;;;11.10;63.38
76732;BME280;65656;51.130;13.658;2023-02-20T17:13:03;99272.97;;;11.01;64.17
76732;BME280;65656;51.130;13.658;2023-02-20T17:17:04;99274.59;;;10.97;64.25
76732;BME280;65656;51.130;13.658;2023-02-20T17:21:09;99289.13;;;10.98;64.53
76732;BME280;65656;51.130;13.658;2023-02-20T17:25:13;99285.75;;;10.91;64.37
76732;BME280;65656;51.130;13.658;2023-02-20T17:29:17;99284.31;;;10.88;64.90
76732;BME280;65656;51.130;13.658;2023-02-20T17:33:19;99269.03;;;10.92;64.79
76732;BME280;65656;51.130;13.658;2023-02-20T17:37:22;99296.44;;;10.92;64.80
76732;BME280;65656;51.130;13.658;2023-02-20T17:41:24;99319.25;;;10.76;66.06
76732;BME280;65656;51.130;13.658;2023-02-20T17:45:26;99331.59;;;10.56;67.73
76732;BME280;65656;51.130;13.658;2023-02-20T17:49:28;99341.09;;;10.32;68.47
76732;BME280;65656;51.130;13.658;2023-02-20T17:53:30;99348.72;;;9.96;70.18
76732;BME280;65656;51.130;13.658;2023-02-20T17:57:32;99362.00;;;9.59;72.38
76732;BME280;65656;51.130;13.658;2023-02-20T18:01:33;99357.84;;;9.28;73.45
76732;BME280;65656;51.130;13.658;2023-02-20T18:05:35;99360.75;;;9.10;74.13
76732;BME280;65656;51.130;13.658;2023-02-20T18:09:38;99353.06;;;8.95;74.05
76732;BME280;65656;51.130;13.658;2023-02-20T18:13:40;99366.03;;;8.76;75.12
76732;BME280;65656;51.130;13.658;2023-02-20T18:17:41;99367.81;;;8.71;75.87
76732;BME280;65656;51.130;13.658;2023-02-20T18:21:43;99370.69;;;8.64;76.06
76732;BME280;65656;51.130;13.658;2023-02-20T18:25:47;99372.47;;;8.58;76.03
76732;BME280;65656;51.130;13.658;2023-02-20T18:29:48;99386.97;;;8.59;76.70
76732;BME280;65656;51.130;13.658;2023-02-20T18:33:50;99379.72;;;8.53;77.03
76732;BME280;65656;51.130;13.658;2023-02-20T18:37:51;99370.34;;;8.49;77.26
76732;BME280;65656;51.130;13.658;2023-02-20T18:41:55;99375.78;;;8.37;77.82
76732;BME280;65656;51.130;13.658;2023-02-20T18:45:57;99365.47;;;8.39;78.11
76732;BME280;65656;51.130;13.658;2023-02-20T18:49:58;99366.28;;;8.40;77.92
76732;BME280;65656;51.130;13.658;2023-02-20T18:54:00;99365.25;;;8.41;77.43
76732;BME280;65656;51.130;13.658;2023-02-20T18:58:03;99368.66;;;8.48;77.22
76732;BME280;65656;51.130;13.658;2023-02-20T19:02:04;99363.91;;;8.55;76.98
76732;BME280;65656;51.130;13.658;2023-02-20T19:06:06;99354.78;;;8.61;75.99
76732;BME280;65656;51.130;13.658;2023-02-20T19:10:09;99346.78;;;8.71;74.62
76732;BME280;65656;51.130;13.658;2023-02-20T19:14:12;99340.38;;;8.77;74.32
76732;BME280;65656;51.130;13.658;2023-02-20T19:18:13;99339.53;;;8.88;73.37
76732;BME280;65656;51.130;13.658;2023-02-20T19:22:15;99327.41;;;8.96;72.97
76732;BME280;65656;51.130;13.658;2023-02-20T19:26:16;99322.78;;;8.97;72.33
76732;BME280;65656;51.130;13.658;2023-02-20T19:30:19;99339.75;;;8.99;72.63
76732;BME280;65656;51.130;13.658;2023-02-20T19:34:21;99328.94;;;9.04;72.33
76732;BME280;65656;51.130;13.658;2023-02-20T19:38:23;99308.03;;;8.98;73.66
76732;BME280;65656;51.130;13.658;2023-02-20T19:42:24;99306.38;;;8.97;72.38
76732;BME280;65656;51.130;13.658;2023-02-20T19:46:30;99305.69;;;8.89;73.37
76732;BME280;65656;51.130;13.658;2023-02-20T19:50:31;99300.09;;;8.96;73.86
76732;BME280;65656;51.130;13.658;2023-02-20T19:54:33;99310.06;;;8.90;74.37
76732;BME280;65656;51.130;13.658;2023-02-20T19:58:34;99335.63;;;8.84;74.40
76732;BME280;65656;51.130;13.658;2023-02-20T20:02:37;99335.75;;;8.89;74.44
76732;BME280;65656;51.130;13.658;2023-02-20T20:06:39;99329.00;;;8.80;74.96
76732;BME280;65656;51.130;13.658;2023-02-20T20:10:40;99333.97;;;8.83;74.79
76732;BME280;65656;51.130;13.658;2023-02-20T20:14:42;99332.69;;;8.74;75.32
76732;BME280;65656;51.130;13.658;2023-02-20T20:18:44;99328.16;;;8.68;76.21
76732;BME280;65656;51.130;13.658;2023-02-20T20:22:47;99338.75;;;8.64;75.92
76732;BME280;65656;51.130;13.658;2023-02-20T20:26:49;99333.41;;;8.58;76.62
76732;BME280;65656;51.130;13.658;2023-02-20T20:30:51;99329.03;;;8.57;76.18
76732;BME280;65656;51.130;13.658;2023-02-20T20:34:54;99338.19;;;8.51;75.73
76732;BME280;65656;51.130;13.658;2023-02-20T20:38:56;99329.59;;;8.47;76.37
76732;BME280;65656;51.130;13.658;2023-02-20T20:42:57;99333.28;;;8.53;75.76
76732;BME280;65656;51.130;13.658;2023-02-20T20:46:59;99325.84;;;8.48;76.46
76732;BME280;65656;51.130;13.658;2023-02-20T20:51:02;99326.66;;;8.49;75.78
76732;BME280;65656;51.130;13.658;2023-02-20T20:55:05;99317.28;;;8.45;76.21
76732;BME280;65656;51.130;13.658;2023-02-20T20:59:06;99304.56;;;8.50;75.79
76732;BME280;65656;51.130;13.658;2023-02-20T21:03:08;99295.94;;;8.42;75.95
76732;BME280;65656;51.130;13.658;2023-02-20T21:07:11;99290.94;;;8.50;75.67
76732;BME280;65656;51.130;13.658;2023-02-20T21:11:13;99285.94;;;8.47;76.02
76732;BME280;65656;51.130;13.658;2023-02-20T21:15:15;99274.53;;;8.50;76.18
76732;BME280;65656;51.130;13.658;2023-02-20T21:19:16;99266.81;;;8.47;76.27
76732;BME280;65656;51.130;13.658;2023-02-20T21:23:19;99285.72;;;8.49;76.56
76732;BME280;65656;51.130;13.658;2023-02-20T21:27:21;99280.47;;;8.59;76.14
76732;BME280;65656;51.130;13.658;2023-02-20T21:31:22;99289.97;;;8.56;75.57
76732;BME280;65656;51.130;13.658;2023-02-20T21:35:24;99284.84;;;8.60;75.94
76732;BME280;65656;51.130;13.658;2023-02-20T21:39:27;99300.03;;;8.56;76.36
76732;BME280;65656;51.130;13.658;2023-02-20T21:43:28;99282.59;;;8.57;75.91